createdAt,value
2022-11-05T00:01:35.970Z,100547.59
2022-11-05T00:04:21.252Z,100561.31
2022-11-05T00:07:05.990Z,100564.09
2022-11-05T00:09:32.700Z,100567.00
2022-11-05T00:12:17.770Z,100567.00
2022-11-05T00:15:03.046Z,100572.69
2022-11-05T00:17:29.364Z,100577.03
2022-11-05T00:19:55.689Z,100572.69
2022-11-05T00:22:40.392Z,100582.72
2022-11-05T00:25:16.857Z,100581.25
2022-11-05T00:27:44.154Z,100584.22
2022-11-05T00:30:11.273Z,100594.22
2022-11-05T00:32:37.887Z,100582.72
2022-11-05T00:35:05.873Z,100582.72
2022-11-05T00:37:32.331Z,100594.22
2022-11-05T00:39:58.668Z,100586.25
2022-11-05T00:42:43.849Z,100597.03
2022-11-05T00:45:10.196Z,100601.41
2022-11-05T00:47:55.193Z,100596.31
2022-11-05T00:50:21.782Z,100599.19
2022-11-05T00:52:56.476Z,100601.41
2022-11-05T00:55:25.859Z,100601.31
2022-11-05T00:57:52.204Z,100611.44
2022-11-05T01:00:18.560Z,100611.34
2022-11-05T01:02:45.031Z,100599.84
2022-11-05T01:05:11.477Z,100617.09
2022-11-05T01:07:37.792Z,100615.66
2022-11-05T01:10:04.151Z,100617.03
2022-11-05T01:12:30.906Z,100619.25
2022-11-05T01:14:57.224Z,100627.16
2022-11-05T01:17:23.533Z,100627.16
2022-11-05T01:19:49.850Z,100628.53
2022-11-05T01:22:16.147Z,100632.91
2022-11-05T01:24:42.463Z,100628.50
2022-11-05T01:27:08.772Z,100631.28
2022-11-05T01:29:35.221Z,100634.97
2022-11-05T01:32:01.559Z,100635.72
2022-11-05T01:34:27.879Z,100634.97
2022-11-05T01:36:54.200Z,100635.72
2022-11-05T01:39:20.542Z,100645.75
2022-11-05T01:41:46.893Z,100645.75
2022-11-05T01:44:31.815Z,100647.16
2022-11-05T01:46:58.129Z,100651.53
2022-11-05T01:49:26.969Z,100658.66
2022-11-05T01:51:53.285Z,100652.81
2022-11-05T01:54:37.001Z,100660.06
2022-11-05T02:00:23.386Z,100672.97
2022-11-05T02:02:57.605Z,100670.78
2022-11-05T02:05:27.046Z,100670.09
2022-11-05T02:07:53.376Z,100677.25
2022-11-05T02:10:19.946Z,100680.22
2022-11-05T02:12:47.131Z,100677.25
2022-11-05T02:15:17.440Z,100675.78
2022-11-05T02:17:49.025Z,100687.19
2022-11-05T02:20:22.584Z,100690.06
2022-11-05T02:23:01.078Z,100683.66
2022-11-05T02:25:32.218Z,100690.06
2022-11-05T02:28:17.156Z,100692.94
2022-11-05T02:30:50.580Z,100696.59
2022-11-05T02:33:25.339Z,100700.13
2022-11-05T02:35:58.721Z,100688.53
2022-11-05T02:38:28.907Z,100697.97
2022-11-05T02:41:14.111Z,100697.97
2022-11-05T02:43:46.535Z,100698.56
2022-11-05T02:46:32.510Z,100704.31
2022-11-05T02:49:01.083Z,100710.81
2022-11-05T02:51:31.397Z,100712.97
2022-11-05T02:53:58.596Z,100698.56
2022-11-05T02:56:34.916Z,100712.88
2022-11-05T02:59:01.355Z,100705.63
2022-11-05T03:01:27.767Z,100716.50
2022-11-05T03:03:55.655Z,100721.41
2022-11-05T03:06:29.081Z,100702.66
2022-11-05T03:08:55.408Z,100714.16
2022-11-05T03:11:22.418Z,100719.94
2022-11-05T03:13:53.290Z,100722.72
2022-11-05T03:16:26.856Z,100724.22
2022-11-05T03:18:56.502Z,100727.09
2022-11-05T03:21:24.355Z,100737.09
2022-11-05T03:23:59.188Z,100734.22
2022-11-05T03:26:26.327Z,100739.25
2022-11-05T03:29:08.704Z,100735.00
2022-11-05T03:31:35.050Z,100742.88
2022-11-05T03:34:01.367Z,100755.78
2022-11-05T03:36:30.738Z,100758.56
2022-11-05T03:38:57.115Z,100762.19
2022-11-05T03:41:23.434Z,100754.97
2022-11-05T03:43:50.361Z,100756.44
2022-11-05T03:46:24.831Z,100761.53
2022-11-05T03:48:52.876Z,100757.25
2022-11-05T03:51:29.073Z,100767.47
2022-11-05T03:53:56.162Z,100776.22
2022-11-05T03:56:30.669Z,100783.44
2022-11-05T03:58:59.205Z,100780.63
2022-11-05T04:01:25.743Z,100782.13
2022-11-05T04:03:52.174Z,100785.66
2022-11-05T04:06:37.140Z,100786.41
2022-11-05T04:09:21.952Z,100788.63
2022-11-05T04:12:06.635Z,100795.13
2022-11-05T04:14:32.964Z,100802.94
2022-11-05T04:17:09.500Z,100794.31
2022-11-05T04:19:54.909Z,100783.53
2022-11-05T04:22:40.304Z,100798.84
2022-11-05T04:25:06.627Z,100817.50
2022-11-05T04:27:32.963Z,100821.13
2022-11-05T04:30:17.826Z,100829.84
2022-11-05T04:33:02.842Z,100824.09
2022-11-05T04:35:30.032Z,100829.84
2022-11-05T04:37:56.360Z,100824.09
2022-11-05T04:40:22.680Z,100831.31
2022-11-05T04:42:49.009Z,100823.41
2022-11-05T04:45:15.329Z,100832.81
2022-11-05T04:47:41.675Z,100832.81
2022-11-05T04:50:10.343Z,100832.06
2022-11-05T04:52:36.651Z,100832.81
2022-11-05T04:55:03.048Z,100835.03
2022-11-05T04:57:29.396Z,100830.78
2022-11-05T04:59:55.728Z,100827.06
2022-11-05T05:02:22.113Z,100828.63
2022-11-05T05:04:48.522Z,100835.94
2022-11-05T05:07:14.836Z,100827.97
2022-11-05T05:09:41.164Z,100839.50
2022-11-05T05:12:07.937Z,100822.88
2022-11-05T05:14:34.333Z,100834.47
2022-11-05T05:17:00.644Z,100840.97
2022-11-05T05:19:26.973Z,100837.25
2022-11-05T05:21:53.292Z,100840.13
2022-11-05T05:24:19.849Z,100847.31
2022-11-05T05:26:46.854Z,100848.03
2022-11-05T05:29:13.170Z,100850.25
2022-11-05T05:31:39.505Z,100846.00
2022-11-05T05:34:05.868Z,100851.75
2022-11-05T05:36:32.194Z,100861.13
2022-11-05T05:38:58.522Z,100864.00
2022-11-05T05:41:24.827Z,100861.94
2022-11-05T05:43:51.152Z,100867.63
2022-11-05T05:46:17.652Z,100864.81
2022-11-05T05:48:44.088Z,100861.84
2022-11-05T05:51:10.753Z,100873.47
2022-11-05T05:53:37.082Z,100867.72
2022-11-05T05:56:03.505Z,100873.47
2022-11-05T05:58:33.584Z,100879.22
2022-11-05T06:01:00.257Z,100899.47
2022-11-05T06:03:26.590Z,100898.75
2022-11-05T06:05:52.901Z,100905.97
2022-11-05T06:08:19.220Z,100902.44
2022-11-05T06:10:51.733Z,100905.31
2022-11-05T06:13:18.123Z,100911.81
2022-11-05T06:15:44.445Z,100921.13
2022-11-05T06:18:10.759Z,100916.84
2022-11-05T06:20:37.078Z,100922.59
2022-11-05T06:23:03.409Z,100928.38
2022-11-05T06:25:29.733Z,100930.50
2022-11-05T06:27:56.061Z,100926.22
2022-11-05T06:30:23.673Z,100942.03
2022-11-05T06:32:50.030Z,100937.00
2022-11-05T06:35:16.379Z,100944.16
2022-11-05T06:37:42.776Z,100951.50
2022-11-05T06:40:09.124Z,100955.13
2022-11-05T06:42:35.454Z,100954.38
2022-11-05T06:45:01.787Z,100968.13
2022-11-05T06:47:28.109Z,100968.13
2022-11-05T06:49:54.416Z,100968.78
2022-11-05T06:52:20.835Z,100973.03
2022-11-05T06:54:47.162Z,100973.03
2022-11-05T06:57:13.549Z,100968.03
2022-11-05T06:59:39.866Z,100968.03
2022-11-05T07:02:06.421Z,100972.41
2022-11-05T07:04:32.808Z,100970.25
2022-11-05T07:07:02.103Z,100978.88
2022-11-05T07:09:28.748Z,100982.53
2022-11-05T07:11:55.057Z,100983.28
2022-11-05T07:14:21.367Z,100994.78
2022-11-05T07:16:47.867Z,100999.16
2022-11-05T07:19:14.237Z,101010.66
2022-11-05T07:21:40.880Z,101006.31
2022-11-05T07:24:07.372Z,101006.31
2022-11-05T07:26:34.784Z,101012.06
2022-11-05T07:29:01.196Z,101018.56
2022-11-05T07:31:27.564Z,101023.59
2022-11-05T07:33:53.889Z,101027.94
2022-11-05T07:36:20.217Z,101029.34
2022-11-05T07:38:46.538Z,101039.56
2022-11-05T07:41:12.897Z,101051.09
2022-11-05T07:43:39.225Z,101044.59
2022-11-05T07:46:08.652Z,101039.56
2022-11-05T07:48:39.025Z,101040.31
2022-11-05T07:51:05.381Z,101033.81
2022-11-05T07:53:31.704Z,101039.56
2022-11-05T07:55:58.886Z,101033.72
2022-11-05T07:58:25.207Z,101031.56
2022-11-05T08:00:51.682Z,101038.09
2022-11-05T08:03:18.758Z,101043.84
2022-11-05T08:05:46.221Z,101044.59
2022-11-05T08:08:16.336Z,101046.81
2022-11-05T08:10:42.699Z,101043.19
2022-11-05T08:13:09.233Z,101048.94
2022-11-05T08:15:35.760Z,101054.06
2022-11-05T08:18:03.184Z,101051.19
2022-11-05T08:20:29.508Z,101056.94
2022-11-05T08:22:56.115Z,101063.44
2022-11-05T08:25:22.421Z,101059.81
2022-11-05T08:27:49.943Z,101065.59
2022-11-05T08:30:16.417Z,101069.09
2022-11-05T08:32:42.733Z,101069.88
2022-11-05T08:35:09.045Z,101074.88
2022-11-05T08:37:35.368Z,101069.09
2022-11-05T08:40:01.689Z,101082.88
2022-11-05T08:42:28.005Z,101087.16
2022-11-05T08:44:54.313Z,101083.59
2022-11-05T08:47:20.636Z,101086.56
2022-11-05T08:49:46.941Z,101085.84
2022-11-05T08:52:13.279Z,101091.59
2022-11-05T08:54:39.592Z,101093.75
2022-11-05T08:57:05.899Z,101097.38
2022-11-05T08:59:32.213Z,101097.38
2022-11-05T09:01:58.659Z,101087.97
2022-11-05T09:04:25.085Z,101098.75
2022-11-05T09:06:51.409Z,101102.38
2022-11-05T09:09:17.739Z,101108.78
2022-11-05T09:12:10.601Z,101110.19
2022-11-05T09:14:31.463Z,101117.44
2022-11-05T09:16:57.787Z,101121.72
2022-11-05T09:19:24.155Z,101126.72
2022-11-05T09:21:50.463Z,101123.81
2022-11-05T09:24:16.789Z,101131.72
2022-11-05T09:26:43.123Z,101138.22
2022-11-05T09:29:14.229Z,101131.84
2022-11-05T09:31:40.871Z,101139.06
2022-11-05T09:34:07.171Z,101144.94
2022-11-05T09:36:33.489Z,101144.94
2022-11-05T09:38:59.796Z,101146.44
2022-11-05T09:41:28.214Z,101146.44
2022-11-05T09:43:55.801Z,101150.69
2022-11-05T09:46:23.277Z,101150.69
2022-11-05T09:48:51.460Z,101150.69
2022-11-05T09:51:23.464Z,101153.56
2022-11-05T09:53:50.369Z,101154.97
2022-11-05T09:56:23.937Z,101165.75
2022-11-05T09:58:54.559Z,101163.63
2022-11-05T10:01:25.494Z,101154.97
2022-11-05T10:03:53.647Z,101155.72
2022-11-05T10:06:21.034Z,101152.19
2022-11-05T10:08:49.201Z,101155.06
2022-11-05T10:11:20.419Z,101159.44
2022-11-05T10:13:54.502Z,101153.66
2022-11-05T10:16:25.336Z,101160.94
2022-11-05T10:18:57.285Z,101166.69
2022-11-05T10:21:44.301Z,101169.56
2022-11-05T10:24:13.427Z,101170.94
2022-11-05T10:26:40.770Z,101172.34
2022-11-05T10:29:07.120Z,101163.72
2022-11-05T10:31:35.654Z,101160.72
2022-11-05T10:34:02.563Z,101161.47
2022-11-05T10:36:29.980Z,101167.97
2022-11-05T10:39:00.737Z,101170.94
2022-11-05T10:41:33.180Z,101175.97
2022-11-05T10:44:05.835Z,101176.72
2022-11-05T10:46:38.178Z,101178.22
2022-11-05T10:49:15.102Z,101175.44
2022-11-05T10:51:41.953Z,101178.94
2022-11-05T10:54:13.597Z,101183.97
2022-11-05T10:56:40.262Z,101178.94
2022-11-05T10:59:16.256Z,101184.72
2022-11-05T11:01:42.670Z,101189.75
2022-11-05T11:04:14.019Z,101191.13
2022-11-05T11:06:43.223Z,101196.97
2022-11-05T11:09:17.623Z,101194.09
2022-11-05T11:11:43.969Z,101198.47
2022-11-05T11:14:13.198Z,101210.00
2022-11-05T11:16:46.537Z,101200.59
2022-11-05T11:19:26.151Z,101198.47
2022-11-05T11:22:11.234Z,101198.47
2022-11-05T11:24:38.791Z,101192.72
2022-11-05T11:27:05.636Z,101195.59
2022-11-05T11:29:35.946Z,101202.88
2022-11-05T11:32:02.282Z,101198.47
2022-11-05T11:34:33.742Z,101197.72
2022-11-05T11:37:05.106Z,101204.25
2022-11-05T11:39:31.518Z,101200.59
2022-11-05T11:41:59.153Z,101196.22
2022-11-05T11:44:27.234Z,101203.47
2022-11-05T11:46:54.997Z,101201.25
2022-11-05T11:49:39.040Z,101207.03
2022-11-05T11:52:08.893Z,101202.00
2022-11-05T11:54:35.409Z,101208.50
2022-11-05T11:57:01.797Z,101205.75
2022-11-05T11:59:53.869Z,101201.50
2022-11-05T12:02:29.091Z,101211.59
2022-11-05T12:05:10.723Z,101205.75
2022-11-05T12:07:39.950Z,101205.84
2022-11-05T12:10:12.956Z,101201.50
2022-11-05T12:12:39.195Z,101208.00
2022-11-05T12:15:11.403Z,101208.72
2022-11-05T12:17:57.900Z,101203.59
2022-11-05T12:20:31.449Z,101210.78
2022-11-05T12:23:11.359Z,101211.50
2022-11-05T12:25:43.981Z,101201.34
2022-11-05T12:28:13.479Z,101209.25
2022-11-05T12:30:51.914Z,101202.00
2022-11-05T12:33:20.348Z,101202.75
2022-11-05T12:35:57.617Z,101202.75
2022-11-05T12:38:39.742Z,101194.09
2022-11-05T12:41:11.895Z,101195.50
2022-11-05T12:43:41.968Z,101194.72
2022-11-05T12:46:25.359Z,101196.97
2022-11-05T12:48:51.600Z,101198.38
2022-11-05T12:51:21.648Z,101201.06
2022-11-05T12:53:51.026Z,101201.06
2022-11-05T12:56:19.132Z,101198.09
2022-11-05T12:58:46.924Z,101206.09
2022-11-05T13:01:14.941Z,101203.47
2022-11-05T13:03:47.844Z,101205.00
2022-11-05T13:06:15.129Z,101208.81
2022-11-05T13:08:43.871Z,101211.72
2022-11-05T13:11:10.120Z,101207.41
2022-11-05T13:13:38.420Z,101206.78
2022-11-05T13:16:06.465Z,101200.56
2022-11-05T13:18:42.093Z,101201.94
2022-11-05T13:21:08.694Z,101204.75
2022-11-05T13:23:39.835Z,101200.56
2022-11-05T13:26:07.733Z,101207.81
2022-11-05T13:28:39.458Z,101204.28
2022-11-05T13:31:05.899Z,101203.53
2022-11-05T13:33:33.335Z,101202.16
2022-11-05T13:36:20.973Z,101205.03
2022-11-05T13:39:00.540Z,101207.91
2022-11-05T13:41:31.001Z,101213.69
2022-11-05T13:44:15.359Z,101213.69
2022-11-05T13:46:53.489Z,101212.84
2022-11-05T13:49:38.553Z,101225.22
2022-11-05T13:52:21.131Z,101222.41
2022-11-05T13:55:06.221Z,101225.38
2022-11-05T13:57:39.388Z,101226.84
2022-11-05T14:00:06.980Z,101240.06
2022-11-05T14:02:37.616Z,101240.94
2022-11-05T14:05:04.014Z,101242.13
2022-11-05T14:07:31.432Z,101247.50
2022-11-05T14:10:01.381Z,101242.38
2022-11-05T14:12:34.592Z,101245.25
2022-11-05T14:15:02.400Z,101244.53
2022-11-05T14:17:31.342Z,101239.31
2022-11-05T14:20:06.848Z,101243.59
2022-11-05T14:22:33.188Z,101244.13
2022-11-05T14:24:59.789Z,101250.63
2022-11-05T14:27:29.007Z,101247.25
2022-11-05T14:29:55.431Z,101254.09
2022-11-05T14:32:21.674Z,101248.00
2022-11-05T14:34:54.213Z,101252.28
2022-11-05T14:37:22.170Z,101258.75
2022-11-05T14:39:48.499Z,101253.66
2022-11-05T14:42:14.748Z,101251.50
2022-11-05T14:44:57.329Z,101252.81
2022-11-05T14:47:24.384Z,101252.81
2022-11-05T14:49:52.897Z,101253.00
2022-11-05T14:52:19.232Z,101257.25
2022-11-05T14:54:49.168Z,101255.53
2022-11-05T14:57:16.127Z,101256.78
2022-11-05T14:59:48.123Z,101255.50
2022-11-05T15:02:15.294Z,101254.22
2022-11-05T15:04:49.243Z,101257.09
2022-11-05T15:07:25.000Z,101254.22
2022-11-05T15:09:53.949Z,101251.97
2022-11-05T15:12:22.361Z,101259.22
2022-11-05T15:14:58.541Z,101259.22
2022-11-05T15:17:30.895Z,101265.75
2022-11-05T15:20:17.713Z,101271.50
2022-11-05T15:22:44.927Z,101271.50
2022-11-05T15:25:17.727Z,101269.34
2022-11-05T15:27:55.578Z,101277.25
2022-11-05T15:30:22.242Z,101277.25
2022-11-05T15:32:48.577Z,101283.66
2022-11-05T15:35:18.887Z,101281.50
2022-11-05T15:37:52.579Z,101279.38
2022-11-05T15:40:22.289Z,101288.78
2022-11-05T15:43:07.009Z,101288.69
2022-11-05T15:45:33.348Z,101291.56
2022-11-05T15:47:59.659Z,101284.28
2022-11-05T15:50:25.958Z,101285.78
2022-11-05T15:52:53.777Z,101289.41
2022-11-05T15:55:23.521Z,101287.91
2022-11-05T15:57:51.410Z,101290.91
2022-11-05T16:00:21.629Z,101288.78
2022-11-05T16:03:06.802Z,101300.31
2022-11-05T16:05:33.740Z,101294.53
2022-11-05T16:08:00.312Z,101298.25
2022-11-05T16:10:28.869Z,101303.25
2022-11-05T16:12:55.176Z,101296.13
2022-11-05T16:15:22.528Z,101293.34
2022-11-05T16:17:55.404Z,101300.59
2022-11-05T16:20:28.944Z,101281.91
2022-11-05T16:22:56.261Z,101293.44
2022-11-05T16:25:31.014Z,101287.69
2022-11-05T16:27:57.658Z,101303.47
2022-11-05T16:30:24.065Z,101296.97
2022-11-05T16:32:50.418Z,101300.59
2022-11-05T16:35:20.411Z,101305.72
2022-11-05T16:37:51.781Z,101305.72
2022-11-05T16:40:22.423Z,101307.19
2022-11-05T16:42:51.159Z,101310.84
2022-11-05T16:45:18.210Z,101322.34
2022-11-05T16:47:44.816Z,101320.97
2022-11-05T16:50:14.982Z,101322.50
2022-11-05T16:52:41.315Z,101320.97
2022-11-05T16:55:08.291Z,101322.50
2022-11-05T16:57:34.610Z,101323.22
2022-11-05T17:00:00.915Z,101334.75
2022-11-05T17:02:27.287Z,101339.13
2022-11-05T17:04:53.774Z,101342.66
2022-11-05T17:07:20.088Z,101345.72
2022-11-05T17:09:46.407Z,101350.22
2022-11-05T17:12:12.720Z,101358.75
2022-11-05T17:14:39.031Z,101354.25
2022-11-05T17:17:05.345Z,101370.16
2022-11-05T17:19:31.665Z,101362.28
2022-11-05T17:21:57.971Z,101362.28
2022-11-05T17:24:24.285Z,101361.63
2022-11-05T17:26:50.600Z,101364.50
2022-11-05T17:29:16.904Z,101358.75
2022-11-05T17:31:43.313Z,101363.13
2022-11-05T17:34:09.624Z,101362.38
2022-11-05T17:36:35.957Z,101372.41
2022-11-05T17:39:02.273Z,101370.28
2022-11-05T17:41:28.728Z,101376.03
2022-11-05T17:43:56.059Z,101391.81
2022-11-05T17:46:22.533Z,101389.03
2022-11-05T17:48:48.841Z,101377.50
2022-11-05T17:51:15.524Z,101383.28
2022-11-05T17:53:41.856Z,101384.78
2022-11-05T17:56:09.448Z,101396.31
2022-11-05T17:58:35.765Z,101387.00
2022-11-05T18:01:02.143Z,101383.38
2022-11-05T18:03:28.485Z,101388.41
2022-11-05T18:06:00.156Z,101388.50
2022-11-05T18:08:26.516Z,101392.13
2022-11-05T18:10:52.854Z,101390.72
2022-11-05T18:13:19.159Z,101383.38
2022-11-05T18:15:45.537Z,101382.75
2022-11-05T18:18:11.903Z,101388.50
2022-11-05T18:20:38.244Z,101384.91
2022-11-05T18:23:04.587Z,101381.34
2022-11-05T18:25:30.916Z,101380.50
2022-11-05T18:27:57.241Z,101382.75
2022-11-05T18:30:23.565Z,101386.47
2022-11-05T18:32:50.967Z,101381.44
2022-11-05T18:35:17.291Z,101376.31
2022-11-05T18:37:43.670Z,101374.75
2022-11-05T18:40:10.093Z,101370.47
2022-11-05T18:42:36.415Z,101377.63
2022-11-05T18:45:03.014Z,101374.84
2022-11-05T18:47:29.636Z,101376.31
2022-11-05T18:49:56.285Z,101378.56
2022-11-05T18:52:22.663Z,101374.94
2022-11-05T18:54:48.988Z,101375.59
2022-11-05T18:57:15.315Z,101382.19
2022-11-05T18:59:46.505Z,101387.94
2022-11-05T19:02:12.958Z,101389.47
2022-11-05T19:04:39.457Z,101385.19
2022-11-05T19:07:06.153Z,101387.31
2022-11-05T19:09:35.256Z,101382.28
2022-11-05T19:12:01.828Z,101382.19
2022-11-05T19:14:28.431Z,101381.44
2022-11-05T19:16:54.768Z,101386.47
2022-11-05T19:19:21.087Z,101391.50
2022-11-05T19:21:47.403Z,101390.84
2022-11-05T19:24:17.276Z,101392.97
2022-11-05T19:26:43.810Z,101388.72
2022-11-05T19:29:10.138Z,101385.84
2022-11-05T19:31:36.868Z,101390.94
2022-11-05T19:34:03.287Z,101395.34
2022-11-05T19:36:30.038Z,101391.69
2022-11-05T19:38:57.467Z,101390.94
2022-11-05T19:41:23.913Z,101385.91
2022-11-05T19:43:50.353Z,101373.66
2022-11-05T19:46:17.741Z,101370.75
2022-11-05T19:48:44.040Z,101375.06
2022-11-05T19:51:11.399Z,101377.19
2022-11-05T19:53:38.219Z,101382.19
2022-11-05T19:56:07.998Z,101375.16
2022-11-05T19:58:34.298Z,101378.03
2022-11-05T20:01:00.638Z,101381.66
2022-11-05T20:03:27.016Z,101388.16
2022-11-05T20:05:53.349Z,101393.94
2022-11-05T20:08:19.652Z,101388.91
2022-11-05T20:10:46.298Z,101393.94
2022-11-05T20:13:18.552Z,101392.44
2022-11-05T20:15:46.590Z,101389.66
2022-11-05T20:18:13.370Z,101398.22
2022-11-05T20:20:39.955Z,101401.09
2022-11-05T20:23:06.371Z,101399.59
2022-11-05T20:25:32.860Z,101398.94
2022-11-05T20:27:59.179Z,101401.19
2022-11-05T20:30:25.500Z,101404.81
2022-11-05T20:32:55.236Z,101412.72
2022-11-05T20:35:21.638Z,101409.19
2022-11-05T20:37:53.624Z,101415.59
2022-11-05T20:40:20.365Z,101417.09
2022-11-05T20:42:46.675Z,101415.59
2022-11-05T20:45:13.022Z,101404.72
2022-11-05T20:47:39.332Z,101411.22
2022-11-05T20:50:05.965Z,101406.19
2022-11-05T20:52:32.330Z,101416.97
2022-11-05T20:54:58.644Z,101414.84
2022-11-05T20:57:25.514Z,101411.22
2022-11-05T20:59:51.839Z,101414.94
2022-11-05T21:02:18.273Z,101414.22
2022-11-05T21:04:44.717Z,101409.28
2022-11-05T21:07:11.033Z,101424.31
2022-11-05T21:09:37.357Z,101425.84
2022-11-05T21:12:12.517Z,101425.72
2022-11-05T21:14:39.076Z,101437.25
2022-11-05T21:17:05.633Z,101437.25
2022-11-05T21:19:32.065Z,101446.53
2022-11-05T21:21:58.405Z,101435.78
2022-11-05T21:24:24.717Z,101445.81
2022-11-05T21:26:51.129Z,101436.41
2022-11-05T21:29:17.436Z,101430.66
2022-11-05T21:31:43.974Z,101425.00
2022-11-05T21:34:10.369Z,101420.59
2022-11-05T21:36:36.682Z,101416.97
2022-11-05T21:39:02.992Z,101422.75
2022-11-05T21:41:29.312Z,101411.97
2022-11-05T21:43:55.634Z,101414.22
2022-11-05T21:46:22.004Z,101408.97
2022-11-05T21:48:48.319Z,101415.59
2022-11-05T21:51:33.598Z,101416.13
2022-11-05T21:54:18.441Z,101413.25
2022-11-05T21:57:05.978Z,101424.03
2022-11-05T21:59:48.268Z,101416.97
2022-11-05T22:02:15.529Z,101412.41
2022-11-05T22:04:43.812Z,101425.31
2022-11-05T22:07:11.437Z,101420.31
2022-11-05T22:09:37.757Z,101410.38
2022-11-05T22:12:04.127Z,101415.50
2022-11-05T22:14:30.734Z,101413.25
2022-11-05T22:16:57.075Z,101416.88
2022-11-05T22:19:23.395Z,101413.16
2022-11-05T22:21:49.702Z,101411.66
2022-11-05T22:24:16.014Z,101421.06
2022-11-05T22:26:42.508Z,101413.03
2022-11-05T22:29:08.812Z,101405.81
2022-11-05T22:31:36.668Z,101415.19
2022-11-05T22:34:03.484Z,101412.19
2022-11-05T22:36:29.800Z,101410.81
2022-11-05T22:38:56.112Z,101410.72
2022-11-05T22:41:22.550Z,101418.59
2022-11-05T22:43:48.867Z,101417.84
2022-11-05T22:46:16.455Z,101419.25
2022-11-05T22:48:42.854Z,101421.41
2022-11-05T22:51:10.311Z,101420.63
2022-11-05T22:53:36.663Z,101414.88
2022-11-05T22:56:03.571Z,101418.41
2022-11-05T22:58:29.902Z,101410.41
2022-11-05T23:00:56.215Z,101418.41
2022-11-05T23:03:22.759Z,101416.91
2022-11-05T23:05:55.834Z,101408.94
2022-11-05T23:08:40.746Z,101413.19
2022-11-05T23:11:28.280Z,101411.66
2022-11-05T23:13:55.849Z,101416.06
2022-11-05T23:16:41.195Z,101408.78
2022-11-05T23:19:27.074Z,101414.44
2022-11-05T23:22:11.992Z,101415.09
2022-11-05T23:24:38.322Z,101414.44
2022-11-05T23:27:04.632Z,101408.56
2022-11-05T23:29:30.948Z,101408.47
2022-11-05T23:32:15.905Z,101410.06
2022-11-05T23:34:42.216Z,101413.69
2022-11-05T23:37:27.003Z,101409.22
2022-11-05T23:39:53.435Z,101411.47
2022-11-05T23:42:38.219Z,101404.09
2022-11-05T23:45:23.571Z,101409.22
2022-11-05T23:48:08.271Z,101406.97
2022-11-05T23:50:39.566Z,101409.75
2022-11-05T23:53:06.391Z,101398.25
2022-11-05T23:55:32.718Z,101390.22
2022-11-05T23:57:59.042Z,101396.72
